Aviation Digital Data Service (ADDS)

Output produced by METARs form (1952 UTC 06 December 2016)
found at http://aviationweather.gov/adds/metars/
 
KALB 061735Z 0618/0718 02004KT P6SM SCT015 BKN200 
     FM062200 09003KT P6SM OVC100 
     FM070400 10003KT 4SM -SN BKN015 OVC050 
     FM070700 12004KT 2SM -SN OVC008 
     FM071500 17005KT P6SM SCT008 OVC015